createdAt,value
2022-08-28T00:00:26.541Z,6.07
2022-08-28T00:05:30.689Z,6.50
2022-08-28T00:10:33.104Z,5.47
2022-08-28T00:15:37.986Z,5.63
2022-08-28T00:20:40.101Z,7.75
2022-08-28T00:25:41.834Z,5.57
2022-08-28T00:30:51.900Z,5.40
2022-08-28T00:35:55.069Z,5.15
2022-08-28T00:41:00.825Z,5.97
2022-08-28T00:46:10.598Z,7.50
2022-08-28T00:51:14.008Z,8.48
2022-08-28T00:56:18.942Z,6.93
2022-08-28T01:01:20.696Z,5.93
2022-08-28T01:06:22.821Z,6.78
2022-08-28T01:11:24.851Z,6.40
2022-08-28T01:16:32.993Z,5.85
2022-08-28T01:21:47.263Z,7.10
2022-08-28T01:26:48.971Z,9.47
2022-08-28T01:31:50.687Z,10.40
2022-08-28T01:36:52.535Z,7.43
2022-08-28T01:41:55.875Z,7.47
2022-08-28T01:46:59.451Z,6.22
2022-08-28T01:52:01.159Z,7.25
2022-08-28T01:57:05.322Z,8.15
2022-08-28T02:02:07.834Z,7.35
2022-08-28T02:07:09.564Z,6.47
2022-08-28T02:12:11.354Z,7.53
2022-08-28T02:17:13.085Z,7.13
2022-08-28T02:22:16.656Z,6.87
2022-08-28T02:27:18.444Z,9.95
2022-08-28T02:32:20.167Z,8.52
2022-08-28T02:37:22.224Z,9.70
2022-08-28T02:42:24.119Z,8.85
2022-08-28T02:47:25.927Z,8.48
2022-08-28T02:52:27.672Z,10.53
2022-08-28T02:57:29.420Z,8.03
2022-08-28T03:02:31.202Z,9.27
2022-08-28T03:07:33.110Z,8.52
2022-08-28T03:12:35.598Z,8.50
2022-08-28T03:17:37.628Z,7.03
2022-08-28T03:22:39.816Z,7.30
2022-08-28T03:27:41.513Z,7.60
2022-08-28T03:32:43.264Z,6.17
2022-08-28T03:37:44.997Z,6.50
2022-08-28T03:42:52.977Z,7.13
2022-08-28T03:47:55.196Z,10.73
2022-08-28T03:52:56.917Z,7.70
2022-08-28T03:57:58.654Z,6.32
2022-08-28T04:03:00.743Z,6.00
2022-08-28T04:08:03.392Z,6.45
2022-08-28T04:13:05.130Z,7.43
2022-08-28T04:18:07.611Z,6.00
2022-08-28T04:23:09.348Z,5.47
2022-08-28T04:28:11.203Z,6.95
2022-08-28T04:33:13.044Z,8.70
2022-08-28T04:38:15.144Z,6.67
2022-08-28T04:43:17.146Z,5.63
2022-08-28T04:48:19.699Z,7.40
2022-08-28T04:53:21.470Z,5.53
2022-08-28T04:58:24.066Z,5.25
2022-08-28T05:03:26.175Z,5.72
2022-08-28T05:08:27.921Z,4.10
2022-08-28T05:13:29.661Z,4.63
2022-08-28T05:18:31.491Z,5.13
2022-08-28T05:23:33.170Z,5.57
2022-08-28T05:28:34.884Z,6.50
2022-08-28T05:33:36.715Z,5.07
2022-08-28T05:38:38.993Z,8.00
2022-08-28T05:43:40.693Z,4.03
2022-08-28T05:48:43.265Z,4.90
2022-08-28T05:53:46.290Z,4.47
2022-08-28T05:58:48.744Z,5.50
2022-08-28T06:04:08.139Z,5.00
2022-08-28T06:09:14.225Z,4.22
2022-08-28T06:14:18.498Z,6.20
2022-08-28T06:19:22.082Z,5.53
2022-08-28T06:24:25.498Z,4.20
2022-08-28T06:29:28.331Z,3.92
2022-08-28T06:34:30.197Z,6.25
2022-08-28T06:39:31.897Z,4.57
2022-08-28T06:44:33.590Z,5.97
2022-08-28T06:49:35.289Z,3.03
2022-08-28T06:54:37.051Z,2.20
2022-08-28T06:59:39.838Z,3.28
2022-08-28T07:04:41.550Z,3.83
2022-08-28T07:09:43.490Z,2.90
2022-08-28T07:14:45.404Z,3.05
2022-08-28T07:19:47.120Z,4.22
2022-08-28T07:24:49.311Z,3.60
2022-08-28T07:29:52.290Z,2.63
2022-08-28T07:34:54.012Z,1.43
2022-08-28T07:39:55.801Z,2.85
2022-08-28T07:44:57.530Z,1.80
2022-08-28T07:49:59.698Z,1.10
2022-08-28T07:55:01.446Z,2.40
2022-08-28T08:00:04.413Z,3.25
2022-08-28T08:05:06.460Z,1.98
2022-08-28T08:10:10.342Z,1.60
2022-08-28T08:15:12.602Z,2.70
2022-08-28T08:20:14.566Z,4.57
2022-08-28T08:25:16.406Z,2.80
2022-08-28T08:30:18.275Z,2.35
2022-08-28T08:35:20.056Z,2.40
2022-08-28T08:40:22.059Z,2.38
2022-08-28T08:45:24.336Z,2.55
2022-08-28T08:50:29.284Z,2.85
2022-08-28T08:55:51.931Z,2.92
2022-08-28T09:01:18.494Z,3.70
2022-08-28T09:06:43.629Z,4.07
2022-08-28T09:11:50.309Z,4.93
2022-08-28T09:16:57.648Z,4.10
2022-08-28T09:21:59.619Z,3.60
2022-08-28T09:27:21.771Z,5.10
2022-08-28T09:32:44.979Z,3.67
2022-08-28T09:37:46.790Z,3.90
2022-08-28T09:43:15.531Z,4.82
2022-08-28T09:48:33.393Z,6.22
2022-08-28T09:53:51.347Z,4.30
2022-08-28T09:58:56.743Z,6.10
2022-08-28T10:04:26.284Z,5.73
2022-08-28T10:09:48.083Z,6.43
2022-08-28T10:15:01.981Z,6.23
2022-08-28T10:20:22.422Z,6.72
2022-08-28T10:25:33.723Z,6.93
2022-08-28T10:30:46.746Z,7.00
2022-08-28T10:36:34.570Z,7.47
2022-08-28T10:41:54.750Z,6.83
2022-08-28T10:46:58.663Z,7.93
2022-08-28T10:52:15.000Z,7.40
2022-08-28T10:57:40.029Z,6.32
2022-08-28T11:02:46.960Z,5.85
2022-08-28T11:07:53.057Z,5.63
2022-08-28T11:12:55.426Z,6.10
2022-08-28T11:18:42.384Z,6.67
2022-08-28T11:23:50.268Z,7.70
2022-08-28T11:28:52.211Z,6.35
2022-08-28T11:33:54.178Z,6.40
2022-08-28T11:38:56.005Z,6.27
2022-08-28T11:44:09.998Z,6.85
2022-08-28T11:49:23.615Z,5.57
2022-08-28T11:54:56.277Z,4.47
2022-08-28T12:00:10.055Z,5.33
2022-08-28T12:05:31.676Z,5.47
2022-08-28T12:10:33.343Z,4.10
2022-08-28T12:15:35.067Z,6.82
2022-08-28T12:20:58.635Z,4.93
2022-08-28T12:26:17.925Z,4.75
2022-08-28T12:31:41.256Z,6.38
2022-08-28T12:36:43.189Z,3.50
2022-08-28T12:41:45.095Z,4.90
2022-08-28T12:46:46.859Z,3.85
2022-08-28T12:51:49.990Z,5.60
2022-08-28T12:56:51.738Z,3.93
2022-08-28T13:01:53.830Z,3.85
2022-08-28T13:07:16.680Z,3.28
2022-08-28T13:12:54.323Z,2.67
2022-08-28T13:17:53.793Z,3.10
2022-08-28T13:22:55.956Z,2.55
2022-08-28T13:28:00.116Z,3.13
2022-08-28T13:33:06.904Z,3.27
2022-08-28T13:38:14.480Z,3.45
2022-08-28T13:43:18.962Z,3.13
2022-08-28T13:48:23.583Z,3.43
2022-08-28T13:53:25.291Z,2.63
2022-08-28T13:58:27.388Z,2.53
2022-08-28T14:03:29.109Z,2.92
2022-08-28T14:08:31.092Z,3.80
2022-08-28T14:13:32.924Z,3.38
2022-08-28T14:18:34.846Z,3.40
2022-08-28T14:23:36.560Z,3.63
2022-08-28T14:28:38.291Z,4.05
2022-08-28T14:33:40.085Z,3.90
2022-08-28T14:38:44.509Z,3.80
2022-08-28T14:43:46.672Z,2.85
2022-08-28T14:48:49.077Z,2.30
2022-08-28T14:53:51.195Z,2.60
2022-08-28T14:58:52.920Z,2.65
2022-08-28T15:03:55.433Z,3.13
2022-08-28T15:08:57.777Z,2.10
2022-08-28T15:13:59.507Z,2.75
2022-08-28T15:19:02.137Z,3.30
2022-08-28T15:24:05.152Z,3.45
2022-08-28T15:29:07.327Z,6.10
2022-08-28T15:34:16.498Z,3.63
2022-08-28T15:39:18.325Z,4.80
2022-08-28T15:44:20.189Z,3.70
2022-08-28T15:49:23.911Z,4.18
2022-08-28T15:54:26.263Z,4.20
2022-08-28T15:59:48.631Z,4.03
2022-08-28T16:04:50.798Z,4.80
2022-08-28T16:09:52.781Z,2.75
2022-08-28T16:14:54.505Z,4.85
2022-08-28T16:19:56.238Z,3.90
2022-08-28T16:24:57.958Z,8.68
2022-08-28T16:29:59.765Z,3.80
2022-08-28T16:35:02.449Z,3.72
2022-08-28T16:40:05.128Z,5.43
2022-08-28T16:45:07.365Z,3.80
2022-08-28T16:50:11.786Z,3.72
2022-08-28T16:55:13.638Z,3.30
2022-08-28T17:00:15.586Z,2.80
2022-08-28T17:05:18.608Z,3.50
2022-08-28T17:10:22.495Z,9.60
2022-08-28T17:15:24.296Z,4.53
2022-08-28T17:20:26.269Z,2.83
2022-08-28T17:25:28.141Z,2.40
2022-08-28T17:30:29.902Z,3.17
2022-08-28T17:35:31.605Z,2.78
2022-08-28T17:40:42.596Z,2.40
2022-08-28T17:45:44.312Z,3.20
2022-08-28T17:50:46.019Z,2.70
2022-08-28T17:55:47.745Z,4.20
2022-08-28T18:00:49.466Z,3.92
2022-08-28T18:05:51.258Z,2.73
2022-08-28T18:10:52.997Z,2.72
2022-08-28T18:15:56.930Z,4.35
2022-08-28T18:20:58.945Z,3.83
2022-08-28T18:26:00.628Z,4.63
2022-08-28T18:31:03.974Z,3.70
2022-08-28T18:36:13.867Z,4.38
2022-08-28T18:41:15.801Z,3.45
2022-08-28T18:46:17.534Z,4.38
2022-08-28T18:51:21.774Z,2.87
2022-08-28T18:56:23.561Z,4.07
2022-08-28T19:01:29.247Z,4.88
2022-08-28T19:06:31.633Z,3.58
2022-08-28T19:11:33.891Z,3.97
2022-08-28T19:16:35.604Z,3.97
2022-08-28T19:21:37.583Z,3.80
2022-08-28T19:26:39.285Z,4.47
2022-08-28T19:31:41.882Z,3.85
2022-08-28T19:36:43.607Z,4.82
2022-08-28T19:41:45.328Z,5.73
2022-08-28T19:46:47.246Z,4.40
2022-08-28T19:51:49.089Z,5.28
2022-08-28T19:56:50.803Z,4.88
2022-08-28T20:01:52.707Z,5.25
2022-08-28T20:06:54.444Z,6.35
2022-08-28T20:11:56.167Z,6.35
2022-08-28T20:16:58.699Z,5.93
2022-08-28T20:22:00.407Z,5.45
2022-08-28T20:27:02.268Z,7.20
2022-08-28T20:32:04.282Z,5.68
2022-08-28T20:37:06.023Z,6.90
2022-08-28T20:42:09.225Z,5.95
2022-08-28T20:47:10.906Z,6.30
2022-08-28T20:52:14.333Z,5.40
2022-08-28T20:57:18.377Z,5.60
2022-08-28T21:02:24.254Z,7.30
2022-08-28T21:07:26.183Z,5.97
2022-08-28T21:12:27.947Z,6.85
2022-08-28T21:17:30.684Z,6.00
2022-08-28T21:22:35.115Z,6.40
2022-08-28T21:27:37.921Z,6.18
2022-08-28T21:32:39.973Z,5.67
2022-08-28T21:37:42.696Z,7.87
2022-08-28T21:42:44.442Z,7.13
2022-08-28T21:47:46.159Z,6.68
2022-08-28T21:52:47.871Z,6.73
2022-08-28T21:57:49.737Z,9.43
2022-08-28T22:02:51.632Z,7.80
2022-08-28T22:07:53.454Z,6.20
2022-08-28T22:12:55.163Z,7.13
2022-08-28T22:17:56.991Z,7.28
2022-08-28T22:22:58.789Z,6.18
2022-08-28T22:28:00.547Z,7.17
2022-08-28T22:33:02.679Z,8.55
2022-08-28T22:38:04.869Z,7.30
2022-08-28T22:43:06.823Z,7.13
2022-08-28T22:48:08.895Z,7.17
2022-08-28T22:53:11.370Z,6.50
2022-08-28T22:58:13.202Z,7.90
2022-08-28T23:03:15.288Z,7.95
2022-08-28T23:08:17.521Z,7.47
2022-08-28T23:13:19.944Z,9.15
2022-08-28T23:18:21.953Z,7.68
2022-08-28T23:23:23.942Z,8.85
2022-08-28T23:28:25.752Z,8.73
2022-08-28T23:33:27.472Z,8.05
2022-08-28T23:38:29.300Z,8.63
2022-08-28T23:43:31.189Z,11.83
2022-08-28T23:48:33.472Z,11.50
2022-08-28T23:53:37.530Z,9.77
2022-08-28T23:58:39.603Z,11.60
